Address 0x43229759e12efbe3e2a0fb0510b15e516d046442 5

 
 
Txn Hash Method
Block
From
To
Value [Txn Fee]
0xb0f14c49f494282760253398f460bc54c44876da00bfe675a4c36787d58ddc9cSet Benign Calle...112727762021-09-27 7:00:091 day 34 mins ago0x43229759e12efbe3e2a0fb0510b15e516d046442OUT 0x3ede9c4cb9e7617b2f144fd4e16934cddd63a8560 BNB0.0002183
0x6341b65b81a37a395648f6af18243960629e2d02072300743c3040fe9fe6af3eAdd Keeper112727602021-09-27 6:59:211 day 35 mins ago0x43229759e12efbe3e2a0fb0510b15e516d046442OUT 0x064213bc8cd6980efe41a4247f0ed5e99257e5f90 BNB0.00021765
0xcda3898c45edd25149e5f57b27447d04c2818b288378914085c940888be629ffMass Update Pool...112723072021-09-27 6:36:421 day 58 mins ago0x43229759e12efbe3e2a0fb0510b15e516d046442OUT 0x36cb43eb6f5168a1f8310b030a4de6b3b58b46640 BNB0.001262055
0x63a74039428c889effa369df2456d23183f35efa9ecee10436f5ee07cd4efcd6Set112722962021-09-27 6:36:091 day 58 mins ago0x43229759e12efbe3e2a0fb0510b15e516d046442OUT 0x36cb43eb6f5168a1f8310b030a4de6b3b58b46640 BNB0.000182135
0x63f09bd0d1145840a0a36f17827f1f78376b64557f8261588a60a94d8b6447d9Set112722922021-09-27 6:35:571 day 58 mins ago0x43229759e12efbe3e2a0fb0510b15e516d046442OUT 0x36cb43eb6f5168a1f8310b030a4de6b3b58b46640 BNB0.000182135
0x9ab8bc8da73ce49b9111f076d5a40889aeaa519ab9059cb77dcc33db510f8136Set112722872021-09-27 6:35:421 day 59 mins ago0x43229759e12efbe3e2a0fb0510b15e516d046442OUT 0x36cb43eb6f5168a1f8310b030a4de6b3b58b46640 BNB0.000182135
0x8051b7b72ed8e9ca89185373b484ed9192a8c8d2adec8af6ea83b580a1f0b709Set112722672021-09-27 6:34:421 day 1 hr ago0x43229759e12efbe3e2a0fb0510b15e516d046442OUT 0x36cb43eb6f5168a1f8310b030a4de6b3b58b46640 BNB0.000182135
0x8711b455ff53a021ddc0d7ca3b4b54d94e342d1adf151106826c7ad1d840ab27Set112722632021-09-27 6:34:301 day 1 hr ago0x43229759e12efbe3e2a0fb0510b15e516d046442OUT 0x36cb43eb6f5168a1f8310b030a4de6b3b58b46640 BNB0.000182135
0x3aab667c2e1eb5ef46f09966000d149ad0093d82f8c0300056907cbbb0579264Set112722432021-09-27 6:33:301 day 1 hr ago0x43229759e12efbe3e2a0fb0510b15e516d046442OUT 0x36cb43eb6f5168a1f8310b030a4de6b3b58b46640 BNB0.000182135
0x01080774481315bd00d4f1401b2fe53e3cb0bcac6ff99bfcfca96270ff652379Set112722202021-09-27 6:32:211 day 1 hr ago0x43229759e12efbe3e2a0fb0510b15e516d046442OUT 0x36cb43eb6f5168a1f8310b030a4de6b3b58b46640 BNB0.000182195
0xf34d9c3cbb58b9af4e3da9b972fc1dd55ef589896a67601898d6868feaf58a76Set112721772021-09-27 6:30:121 day 1 hr ago0x43229759e12efbe3e2a0fb0510b15e516d046442OUT 0x36cb43eb6f5168a1f8310b030a4de6b3b58b46640 BNB0.000182075
0x8edfa327dd68ea7170ed40bf5bb69ad05ceb1d3108888fdf4b790a6461189e27Set MM Per Block112721572021-09-27 6:29:121 day 1 hr ago0x43229759e12efbe3e2a0fb0510b15e516d046442OUT 0x36cb43eb6f5168a1f8310b030a4de6b3b58b46640 BNB0.000137605
0xca82278b96236af8c330a1629651ac0e536e8cc800146856c2c2f0e1a8b340eaHarvest112677942021-09-27 2:48:511 day 4 hrs ago0x43229759e12efbe3e2a0fb0510b15e516d046442OUT 0x3ede9c4cb9e7617b2f144fd4e16934cddd63a8560 BNB0.00355893
0x28fd3c03c6cbb70b4180588bb26e5288a88a9612bbfcc12e23a3e4f03256c0c4Set Buyback Noti...112516952021-09-26 13:14:291 day 18 hrs ago0x43229759e12efbe3e2a0fb0510b15e516d046442OUT 0x36cb43eb6f5168a1f8310b030a4de6b3b58b46640 BNB0.00021866
0xe98ce55367b235fa7ebce2152031693c27e0cef10a228e1a120fb9d84cf4e0f8Earn112516492021-09-26 13:12:111 day 18 hrs ago0x43229759e12efbe3e2a0fb0510b15e516d046442OUT 0x064213bc8cd6980efe41a4247f0ed5e99257e5f90 BNB0.001646245
0x97dcfff9c93ac1675ff84fd79b4ef711251d9355893ec4e03399cbbacab87c7dSet Strategy112516152021-09-26 13:10:271 day 18 hrs ago0x43229759e12efbe3e2a0fb0510b15e516d046442OUT 0x5dae9b27313670663b34ac8bffd18825bb9df7360 BNB0.000348735
0xb01f23656bbf922a4c3ed2a54f59981f152b05706aae0595f370d11032342d17Execute Transact...112515892021-09-26 13:09:091 day 18 hrs ago0x43229759e12efbe3e2a0fb0510b15e516d046442OUT 0xe7e1c319164deb0786a2c9244bf8e0dbc51b64050 BNB0.000230385
0x45f47ed31efe89bd6f563e8a97cb5a42255e168e70d63823752f7709a5c267c1Earn112424972021-09-26 5:30:052 days 2 hrs ago0x43229759e12efbe3e2a0fb0510b15e516d046442OUT 0xa283aa7cfbb27ef0cfbcb2493dd9f4330e0fd3040 BNB0.00319633
0x7a132fc78b323c6e0f9ebe578628664a2e3d8b09af47b94895053048a52d22bdEarn112424892021-09-26 5:29:382 days 2 hrs ago0x43229759e12efbe3e2a0fb0510b15e516d046442OUT 0x64bdf61de87920515c4cb1bc05c7f3f7d6c9d5550 BNB0.00325505
0xb2fbc8dfd330021ea2f15f0abdbca2600a871c497bef7d7a41d8411cec23cbf1Earn112424692021-09-26 5:28:312 days 2 hrs ago0x43229759e12efbe3e2a0fb0510b15e516d046442OUT 0xfe526bcd5ad38f28c685bdb045b4c1e30f19f2240 BNB0.001239845
0x2f804e175bfd91da7f0924d75c9a62169031435817a6304c2793d4ee5e787658Earn112424612021-09-26 5:28:052 days 2 hrs ago0x43229759e12efbe3e2a0fb0510b15e516d046442OUT 0x4ddf7f8ad6457beccdfea9c11006a77a4307c94b0 BNB0.001094565
0x1f9dbe21a4aed217baaf71a9e118bd9f8ab12494338c8cb75e1363ea735c4705Queue Transactio...112228282021-09-25 12:59:592 days 18 hrs ago0x43229759e12efbe3e2a0fb0510b15e516d046442OUT 0xe7e1c319164deb0786a2c9244bf8e0dbc51b64050 BNB0.0002621
0xe4a38d8e6d9ac78159d31c890ed9a0cdaf2e6d965e1bee1e412a35a41e7c7a000x60806040112227832021-09-25 12:57:442 days 18 hrs ago0x43229759e12efbe3e2a0fb0510b15e516d046442OUT Contract Creation0 BNB0.018098785
0xd0e6e303020a890d9ff853a8245129a213a12d045bcfe98398532811c97b24ffEarn112223942021-09-25 12:38:172 days 18 hrs ago0x43229759e12efbe3e2a0fb0510b15e516d046442OUT 0x064213bc8cd6980efe41a4247f0ed5e99257e5f90 BNB0.00165129
0x79a125a0b22b0c742bd8cceac72050995aab84fd9737c4d66f1e9dc458807de8Deposit All112223352021-09-25 12:35:202 days 18 hrs ago0x43229759e12efbe3e2a0fb0510b15e516d046442OUT 0x064213bc8cd6980efe41a4247f0ed5e99257e5f90 BNB0.000435705
[ Download CSV Export 
Latest 6 internal transactions
Parent Txn Hash Block From To Value
0xea3527302f1dba850ab6720033bdd8e85475294c6b963b7c4860df98a318dd56111913042021-09-24 10:37:023 days 20 hrs ago PancakeSwap: Router v20x43229759e12efbe3e2a0fb0510b15e516d0464420.000134502701059225 BNB
0x336f4c58b77920c2e3935ea15ff88393e85a8bf92376f44892d80cb30bba7345111876262021-09-24 7:32:454 days 2 mins ago PancakeSwap: Router v20x43229759e12efbe3e2a0fb0510b15e516d0464420.000135677786000007 BNB
0xd4213613b01fa8c3d1d1a6e99c40274241c88de19b77a1aa1aba33ffadcef0aa97847072021-08-06 1:56:2153 days 5 hrs ago PancakeSwap: Router v20x43229759e12efbe3e2a0fb0510b15e516d0464420.000362365214542163 BNB
0x0161c37c72ea7d7ebe067ee037a418bfc8bf05cd3ea72e228c2e648d0dc480db97642182021-08-05 8:23:0653 days 23 hrs ago PancakeSwap: Router v20x43229759e12efbe3e2a0fb0510b15e516d0464420.000075899580727582 BNB
0x6706648d088de648bd7126f95e233b89ed9d163047372db5b5a839a3ede616a195166802021-07-27 8:04:1862 days 23 hrs ago PancakeSwap: Router v20x43229759e12efbe3e2a0fb0510b15e516d0464420.00741625786015161 BNB
0x9ef1c633b88d0d616c69b38bdc07872d907474a8293add8b9815d5c7aec7791579966542021-06-04 7:08:38116 days 26 mins ago PancakeSwap: Router v20x43229759e12efbe3e2a0fb0510b15e516d0464420.024680507351973184 BNB
[ Download CSV Export 
Loading

Contract Name:
0 BNB

Compiler Version
0

Optimization Enabled:
0 BNB

Other Settings:
-NA-
Block Transaction Gas Used Reward
Age Block Fee Address BC Fee Address Voting Power Jailed Incoming
Block Uncle Number Difficulty Gas Used Reward
Loading
Loading
Make sure to use the "Vote Down" button for any spammy posts, and the "Vote Up" for interesting conversations.